createdAt,value
2018-09-23T01:31:28.831Z,12.20
2018-09-23T01:31:29.334Z,12.19
2018-09-23T01:31:29.931Z,12.16
2018-09-23T01:31:30.531Z,12.16
2018-09-23T01:31:31.128Z,12.20
2018-09-23T01:31:31.730Z,12.16
2018-09-23T01:31:32.333Z,12.15
2018-09-23T01:32:25.830Z,12.19
2018-09-23T01:32:26.422Z,12.19
2018-09-23T01:32:27.023Z,12.29
2018-09-23T01:32:27.622Z,12.19
2018-09-23T01:32:28.226Z,12.19
2018-09-23T01:32:28.823Z,12.16
2018-09-23T01:32:29.423Z,12.15
2018-09-23T01:32:30.021Z,12.19
2018-09-23T01:33:24.502Z,12.12
2018-09-23T01:33:25.098Z,12.29
2018-09-23T01:33:25.697Z,12.16
2018-09-23T01:33:26.297Z,12.29
2018-09-23T01:33:26.898Z,12.27
2018-09-23T01:33:27.497Z,12.15
2018-09-23T01:33:28.097Z,12.30
2018-09-23T01:33:28.697Z,12.16
2018-09-23T01:34:22.156Z,12.29
2018-09-23T01:34:22.752Z,12.24
2018-09-23T01:34:23.351Z,12.15
2018-09-23T01:34:23.952Z,12.21
2018-09-23T01:34:24.550Z,12.31
2018-09-23T01:34:25.154Z,12.15
2018-09-23T01:34:25.750Z,12.15
2018-09-23T01:34:26.351Z,12.20
2018-09-23T01:35:20.829Z,12.20
2018-09-23T01:35:21.426Z,12.16
2018-09-23T01:35:22.026Z,12.15
2018-09-23T01:35:22.630Z,12.29
2018-09-23T01:35:23.225Z,12.16
2018-09-23T01:35:23.828Z,12.19
2018-09-23T01:35:24.426Z,12.31
2018-09-23T01:35:25.026Z,12.16
2018-09-23T01:36:19.529Z,12.19
2018-09-23T01:36:20.104Z,12.24
2018-09-23T01:36:20.703Z,12.26
2018-09-23T01:36:21.319Z,12.20
2018-09-23T01:36:21.903Z,12.16
2018-09-23T01:36:22.502Z,12.19
2018-09-23T01:36:23.102Z,12.31
2018-09-23T01:36:23.702Z,12.20
2018-09-23T01:37:18.182Z,12.16
2018-09-23T01:37:18.781Z,12.26
2018-09-23T01:37:19.379Z,12.19
2018-09-23T01:37:19.984Z,12.23
2018-09-23T01:37:20.577Z,12.20
2018-09-23T01:37:21.178Z,12.23
2018-09-23T01:37:21.778Z,12.29
2018-09-23T01:37:22.378Z,12.31
2018-09-23T01:38:16.858Z,12.15
2018-09-23T01:38:17.456Z,12.24
2018-09-23T01:38:18.055Z,12.21
2018-09-23T01:38:18.659Z,12.20
2018-09-23T01:38:19.258Z,12.26
2018-09-23T01:38:19.854Z,12.29
2018-09-23T01:38:20.453Z,12.31
2018-09-23T01:38:21.054Z,12.29
2018-09-23T01:39:15.534Z,12.23
2018-09-23T01:39:16.131Z,12.31
2018-09-23T01:39:16.730Z,12.31
2018-09-23T01:39:17.334Z,12.29
2018-09-23T01:39:17.929Z,12.29
2018-09-23T01:39:18.555Z,12.26
2018-09-23T01:39:19.130Z,12.29
2018-09-23T01:39:19.730Z,12.15
2018-09-23T01:40:13.188Z,12.31
2018-09-23T01:40:13.784Z,12.29
2018-09-23T01:40:14.383Z,12.29
2018-09-23T01:40:14.982Z,12.29
2018-09-23T01:40:15.585Z,12.21
2018-09-23T01:40:16.183Z,12.31
2018-09-23T01:40:16.783Z,12.26
2018-09-23T01:40:17.386Z,12.31
2018-09-23T01:41:11.882Z,12.29
2018-09-23T01:41:12.458Z,12.24
2018-09-23T01:41:13.058Z,12.33
2018-09-23T01:41:13.662Z,12.20
2018-09-23T01:41:14.258Z,12.30
2018-09-23T01:41:14.860Z,12.29
2018-09-23T01:41:15.457Z,12.29
2018-09-23T01:41:16.062Z,12.33
2018-09-23T01:42:10.537Z,12.30
2018-09-23T01:42:11.136Z,12.33
2018-09-23T01:42:11.735Z,12.23
2018-09-23T01:42:12.335Z,12.29
2018-09-23T01:42:12.934Z,12.26
2018-09-23T01:42:13.533Z,12.31
2018-09-23T01:42:14.133Z,12.33
2018-09-23T01:42:14.735Z,12.21
2018-09-23T01:43:08.189Z,12.31
2018-09-23T01:43:08.787Z,12.31
2018-09-23T01:43:09.386Z,12.26
2018-09-23T01:43:09.985Z,12.37
2018-09-23T01:43:10.587Z,12.30
2018-09-23T01:43:11.187Z,12.31
2018-09-23T01:43:11.786Z,12.37
2018-09-23T01:43:12.385Z,12.34
2018-09-23T01:44:05.844Z,12.31
2018-09-23T01:44:06.438Z,12.41
2018-09-23T01:44:07.039Z,12.29
2018-09-23T01:44:07.639Z,12.44
2018-09-23T01:44:08.238Z,12.31
2018-09-23T01:44:08.837Z,12.30
2018-09-23T01:44:09.438Z,12.42
2018-09-23T01:44:10.039Z,12.34
2018-09-23T01:45:04.515Z,12.41
2018-09-23T01:45:05.115Z,12.42
2018-09-23T01:45:05.714Z,12.45
2018-09-23T01:45:06.314Z,12.46
2018-09-23T01:45:06.912Z,12.37
2018-09-23T01:45:07.514Z,12.39
2018-09-23T01:45:08.113Z,12.46
2018-09-23T01:45:08.714Z,12.38
2018-09-23T01:46:02.199Z,12.39
2018-09-23T01:46:02.767Z,12.34
2018-09-23T01:46:03.366Z,12.44
2018-09-23T01:46:03.966Z,12.46
2018-09-23T01:46:04.565Z,12.44
2018-09-23T01:46:05.166Z,12.34
2018-09-23T01:46:05.769Z,12.41
2018-09-23T01:46:06.368Z,12.38
2018-09-23T01:47:00.844Z,12.49
2018-09-23T01:47:01.442Z,12.42
2018-09-23T01:47:02.043Z,12.45
2018-09-23T01:47:02.642Z,12.45
2018-09-23T01:47:03.241Z,12.41
2018-09-23T01:47:03.841Z,12.41
2018-09-23T01:47:04.443Z,12.41
2018-09-23T01:47:05.040Z,12.41
2018-09-23T01:47:59.521Z,12.46
2018-09-23T01:48:00.117Z,12.41
2018-09-23T01:48:00.716Z,12.51
2018-09-23T01:48:01.317Z,12.44
2018-09-23T01:48:01.916Z,12.41
2018-09-23T01:48:02.517Z,12.48
2018-09-23T01:48:03.116Z,12.54
2018-09-23T01:48:03.716Z,12.52
2018-09-23T01:48:58.195Z,12.45
2018-09-23T01:48:58.793Z,12.54
2018-09-23T01:48:59.391Z,12.52
2018-09-23T01:48:59.996Z,12.49
2018-09-23T01:49:00.592Z,12.51
2018-09-23T01:49:01.191Z,12.52
2018-09-23T01:49:01.795Z,12.49
2018-09-23T01:49:02.389Z,12.54
2018-09-23T01:49:55.849Z,12.54
2018-09-23T01:49:56.446Z,12.54
2018-09-23T01:49:57.045Z,12.54
2018-09-23T01:49:57.645Z,12.51
2018-09-23T01:49:58.245Z,12.51
2018-09-23T01:49:58.845Z,12.54
2018-09-23T01:49:59.444Z,12.56
2018-09-23T01:50:00.047Z,12.62
2018-09-23T01:50:54.522Z,12.49
2018-09-23T01:50:55.120Z,12.56
2018-09-23T01:50:55.721Z,12.57
2018-09-23T01:50:56.322Z,12.51
2018-09-23T01:50:56.919Z,12.62
2018-09-23T01:50:57.519Z,12.51
2018-09-23T01:50:58.119Z,12.54
2018-09-23T01:50:58.720Z,12.51
2018-09-23T01:51:53.223Z,12.52
2018-09-23T01:51:53.795Z,12.52
2018-09-23T01:51:54.398Z,12.62
2018-09-23T01:51:54.997Z,12.52
2018-09-23T01:51:55.594Z,12.62
2018-09-23T01:51:56.196Z,12.59
2018-09-23T01:51:56.795Z,12.57
2018-09-23T01:51:57.394Z,12.59
2018-09-23T01:52:50.864Z,12.56
2018-09-23T01:52:51.450Z,12.59
2018-09-23T01:52:52.048Z,12.57
2018-09-23T01:52:52.648Z,12.66
2018-09-23T01:52:53.250Z,12.59
2018-09-23T01:52:53.849Z,12.57
2018-09-23T01:52:54.449Z,12.60
2018-09-23T01:52:55.050Z,12.57
2018-09-23T01:53:48.504Z,12.63
2018-09-23T01:53:49.101Z,12.49
2018-09-23T01:53:49.700Z,12.56
2018-09-23T01:53:50.300Z,12.69
2018-09-23T01:53:50.900Z,12.63
2018-09-23T01:53:51.499Z,12.56
2018-09-23T01:53:52.099Z,12.69
2018-09-23T01:53:52.700Z,12.63
2018-09-23T01:54:46.155Z,12.62
2018-09-23T01:54:46.753Z,12.66
2018-09-23T01:54:47.352Z,12.62
2018-09-23T01:54:47.951Z,12.56
2018-09-23T01:54:48.550Z,12.66
2018-09-23T01:54:49.150Z,12.51
2018-09-23T01:54:49.750Z,12.60
2018-09-23T01:54:50.351Z,12.54
2018-09-23T01:55:43.805Z,12.62
2018-09-23T01:55:44.405Z,12.54
2018-09-23T01:55:45.004Z,12.63
2018-09-23T01:55:45.602Z,12.75
2018-09-23T01:55:46.204Z,12.57
2018-09-23T01:55:46.805Z,12.60
2018-09-23T01:55:47.402Z,12.62
2018-09-23T01:55:48.003Z,12.60
2018-09-23T01:56:42.507Z,12.59
2018-09-23T01:56:43.080Z,12.60
2018-09-23T01:56:43.678Z,12.64
2018-09-23T01:56:44.277Z,12.64
2018-09-23T01:56:44.879Z,12.54
2018-09-23T01:56:45.483Z,12.64
2018-09-23T01:56:46.083Z,12.60
2018-09-23T01:56:46.678Z,12.62
2018-09-23T01:57:40.134Z,12.59
2018-09-23T01:57:40.732Z,12.60
2018-09-23T01:57:41.334Z,12.67
2018-09-23T01:57:41.931Z,12.63
2018-09-23T01:57:42.531Z,12.66
2018-09-23T01:57:43.132Z,12.66
2018-09-23T01:57:43.733Z,12.62
2018-09-23T01:57:44.331Z,12.66
2018-09-23T01:58:37.787Z,12.67
2018-09-23T01:58:38.383Z,12.64
2018-09-23T01:58:38.984Z,12.69
2018-09-23T01:58:39.582Z,12.70
2018-09-23T01:58:40.183Z,12.67
2018-09-23T01:58:40.782Z,12.63
2018-09-23T01:58:41.383Z,12.69
2018-09-23T01:58:41.981Z,12.71
2018-09-23T01:59:35.438Z,12.70
2018-09-23T01:59:36.036Z,12.69
2018-09-23T01:59:36.633Z,12.67
2018-09-23T01:59:37.261Z,12.70
2018-09-23T01:59:37.835Z,12.70
2018-09-23T01:59:38.433Z,12.69
2018-09-23T01:59:39.037Z,12.71
2018-09-23T01:59:39.634Z,12.60
2018-09-23T02:00:33.089Z,12.70
2018-09-23T02:00:33.687Z,12.71
2018-09-23T02:00:34.286Z,12.74
2018-09-23T02:00:34.888Z,12.66
2018-09-23T02:00:35.486Z,12.70
2018-09-23T02:00:36.087Z,12.69
2018-09-23T02:00:36.686Z,12.70
2018-09-23T02:00:37.286Z,12.67
2018-09-23T02:01:31.790Z,12.78
2018-09-23T02:01:32.362Z,12.74
2018-09-23T02:01:32.961Z,12.77
2018-09-23T02:01:33.561Z,12.77
2018-09-23T02:01:34.167Z,12.75
2018-09-23T02:01:34.764Z,12.69
2018-09-23T02:01:35.360Z,12.78
2018-09-23T02:01:35.960Z,12.74
2018-09-23T02:02:29.416Z,12.71
2018-09-23T02:02:30.015Z,12.77
2018-09-23T02:02:30.617Z,12.79
2018-09-23T02:02:31.213Z,12.75
2018-09-23T02:02:31.813Z,12.81
2018-09-23T02:02:32.413Z,12.79
2018-09-23T02:02:33.013Z,12.79
2018-09-23T02:02:33.615Z,12.78
2018-09-23T02:03:28.092Z,12.75
2018-09-23T02:03:28.689Z,12.74
2018-09-23T02:03:29.288Z,12.71
2018-09-23T02:03:29.889Z,12.78
2018-09-23T02:03:30.488Z,12.81
2018-09-23T02:03:31.089Z,12.88
2018-09-23T02:03:31.688Z,12.77
2018-09-23T02:03:32.288Z,12.77
2018-09-23T02:04:26.767Z,12.77
2018-09-23T02:04:27.364Z,12.75
2018-09-23T02:04:27.963Z,12.82
2018-09-23T02:04:28.567Z,12.77
2018-09-23T02:04:29.164Z,12.81
2018-09-23T02:04:29.763Z,12.77
2018-09-23T02:04:30.362Z,12.75
2018-09-23T02:04:30.964Z,12.82
2018-09-23T02:05:24.420Z,12.88
2018-09-23T02:05:25.017Z,12.87
2018-09-23T02:05:25.616Z,12.84
2018-09-23T02:05:26.217Z,12.84
2018-09-23T02:05:26.817Z,12.85
2018-09-23T02:05:27.417Z,12.84
2018-09-23T02:05:28.015Z,12.85
2018-09-23T02:05:28.616Z,12.82
2018-09-23T02:06:22.095Z,12.78
2018-09-23T02:06:22.667Z,12.85
2018-09-23T02:06:23.268Z,12.79
2018-09-23T02:06:23.869Z,12.85
2018-09-23T02:06:24.468Z,12.88
2018-09-23T02:06:25.067Z,12.84
2018-09-23T02:06:25.668Z,12.87
2018-09-23T02:06:26.268Z,12.79
2018-09-23T02:07:20.746Z,12.82
2018-09-23T02:07:21.354Z,12.84
2018-09-23T02:07:21.945Z,12.84
2018-09-23T02:07:22.544Z,12.79
2018-09-23T02:07:23.142Z,12.87
2018-09-23T02:07:23.742Z,12.89
2018-09-23T02:07:24.344Z,12.87
2018-09-23T02:07:24.942Z,12.88
2018-09-23T02:08:19.423Z,12.82
2018-09-23T02:08:20.019Z,12.85
2018-09-23T02:08:20.618Z,12.88
2018-09-23T02:08:21.219Z,12.89
2018-09-23T02:08:21.819Z,12.79
2018-09-23T02:08:22.418Z,12.85
2018-09-23T02:08:23.019Z,12.88
2018-09-23T02:08:23.620Z,12.88
2018-09-23T02:09:17.075Z,12.89
2018-09-23T02:09:17.671Z,12.92
2018-09-23T02:09:18.272Z,12.87
2018-09-23T02:09:18.871Z,12.92
2018-09-23T02:09:19.475Z,12.79
2018-09-23T02:09:20.071Z,12.85
2018-09-23T02:09:20.671Z,12.88
2018-09-23T02:09:21.270Z,12.84
2018-09-23T02:10:14.726Z,12.87
2018-09-23T02:10:15.322Z,12.82
2018-09-23T02:10:15.923Z,12.97
2018-09-23T02:10:16.528Z,12.84
2018-09-23T02:10:17.123Z,12.82
2018-09-23T02:10:17.724Z,12.99
2018-09-23T02:10:18.321Z,12.84
2018-09-23T02:10:18.922Z,12.87
2018-09-23T02:11:13.404Z,12.84
2018-09-23T02:11:14.000Z,12.95
2018-09-23T02:11:14.597Z,12.97
2018-09-23T02:11:15.199Z,12.97
2018-09-23T02:11:15.796Z,12.99
2018-09-23T02:11:16.398Z,13.03
2018-09-23T02:11:17.002Z,12.92
2018-09-23T02:11:17.596Z,12.85
2018-09-23T02:12:12.102Z,12.84
2018-09-23T02:12:12.675Z,12.89
2018-09-23T02:12:13.275Z,12.99
2018-09-23T02:12:13.875Z,12.99
2018-09-23T02:12:14.476Z,12.99
2018-09-23T02:12:15.075Z,12.95
2018-09-23T02:12:15.673Z,12.99
2018-09-23T02:12:16.273Z,12.96
2018-09-23T02:13:09.732Z,13.03
2018-09-23T02:13:10.331Z,12.96
2018-09-23T02:13:10.930Z,12.96
2018-09-23T02:13:11.527Z,12.99
2018-09-23T02:13:12.131Z,12.97
2018-09-23T02:13:12.727Z,12.97
2018-09-23T02:13:13.327Z,12.97
2018-09-23T02:13:13.927Z,13.00
2018-09-23T02:14:08.404Z,12.96
2018-09-23T02:14:09.001Z,12.96
2018-09-23T02:14:09.602Z,12.99
2018-09-23T02:14:10.201Z,12.95
2018-09-23T02:14:10.802Z,12.99
2018-09-23T02:14:11.403Z,13.00
2018-09-23T02:14:12.002Z,12.99
2018-09-23T02:14:12.600Z,12.93
2018-09-23T02:15:06.061Z,12.96
2018-09-23T02:15:06.654Z,13.00
2018-09-23T02:15:07.252Z,13.02
2018-09-23T02:15:07.858Z,13.00
2018-09-23T02:15:08.454Z,12.93
2018-09-23T02:15:09.055Z,12.99
2018-09-23T02:15:09.653Z,12.97
2018-09-23T02:15:10.253Z,12.97
2018-09-23T02:16:04.731Z,12.99
2018-09-23T02:16:05.328Z,13.00
2018-09-23T02:16:05.927Z,12.93
2018-09-23T02:16:06.529Z,12.96
2018-09-23T02:16:07.130Z,13.00
2018-09-23T02:16:07.728Z,13.03
2018-09-23T02:16:08.327Z,12.99
2018-09-23T02:16:08.928Z,12.89
2018-09-23T02:17:03.431Z,12.95
2018-09-23T02:17:04.005Z,13.03
2018-09-23T02:17:04.604Z,12.95
2018-09-23T02:17:05.202Z,12.99
2018-09-23T02:17:05.804Z,13.06
2018-09-23T02:17:06.405Z,13.04
2018-09-23T02:17:07.003Z,13.03
2018-09-23T02:17:07.603Z,12.96
2018-09-23T02:18:01.060Z,12.97
2018-09-23T02:18:01.657Z,12.97
2018-09-23T02:18:02.257Z,13.04
2018-09-23T02:18:02.856Z,13.03
2018-09-23T02:18:03.457Z,13.00
2018-09-23T02:18:04.058Z,12.97
2018-09-23T02:18:04.657Z,13.03
2018-09-23T02:18:05.257Z,13.02
2018-09-23T02:18:58.712Z,12.95
2018-09-23T02:18:59.309Z,13.00
2018-09-23T02:18:59.909Z,13.03
2018-09-23T02:19:00.509Z,13.04
2018-09-23T02:19:01.109Z,13.02
2018-09-23T02:19:01.709Z,12.95
2018-09-23T02:19:02.310Z,12.96
2018-09-23T02:19:02.907Z,12.92
2018-09-23T02:19:57.388Z,12.99
2018-09-23T02:19:57.984Z,12.99
2018-09-23T02:19:58.584Z,13.02
2018-09-23T02:19:59.184Z,13.02
2018-09-23T02:19:59.785Z,13.07
2018-09-23T02:20:00.385Z,13.02
2018-09-23T02:20:00.984Z,12.95
2018-09-23T02:20:01.585Z,12.95
2018-09-23T02:20:55.039Z,13.03
2018-09-23T02:20:55.637Z,13.03
2018-09-23T02:20:56.236Z,13.00
2018-09-23T02:20:56.836Z,13.02
2018-09-23T02:20:57.436Z,13.02
2018-09-23T02:20:58.035Z,12.97
2018-09-23T02:20:58.635Z,13.04
2018-09-23T02:20:59.238Z,13.02
2018-09-23T02:21:53.739Z,13.00
2018-09-23T02:21:54.311Z,12.95
2018-09-23T02:21:54.911Z,12.95
2018-09-23T02:21:55.511Z,12.93
2018-09-23T02:21:56.117Z,12.97
2018-09-23T02:21:56.710Z,13.02
2018-09-23T02:21:57.310Z,13.00
2018-09-23T02:21:57.913Z,12.92
2018-09-23T02:22:51.366Z,12.96
2018-09-23T02:22:51.968Z,12.97
2018-09-23T02:22:52.564Z,13.03
2018-09-23T02:22:53.165Z,12.99
2018-09-23T02:22:53.764Z,13.06
2018-09-23T02:22:54.364Z,13.00
2018-09-23T02:22:54.963Z,12.93
2018-09-23T02:22:55.566Z,13.03
2018-09-23T02:23:49.018Z,13.04
2018-09-23T02:23:49.614Z,12.99
2018-09-23T02:23:50.217Z,13.04
2018-09-23T02:23:50.815Z,13.00
2018-09-23T02:23:51.414Z,12.96
2018-09-23T02:23:52.016Z,12.95
2018-09-23T02:23:52.618Z,12.97
2018-09-23T02:23:53.214Z,13.02
2018-09-23T02:24:47.693Z,12.96
2018-09-23T02:24:48.289Z,13.02
2018-09-23T02:24:48.892Z,13.02
2018-09-23T02:24:49.490Z,12.99
2018-09-23T02:24:50.089Z,13.00
2018-09-23T02:24:50.689Z,12.97
2018-09-23T02:24:51.288Z,12.96
2018-09-23T02:24:51.889Z,13.00
2018-09-23T02:25:45.346Z,13.00
2018-09-23T02:25:45.943Z,13.06
2018-09-23T02:25:46.562Z,13.03
2018-09-23T02:25:47.143Z,12.99
2018-09-23T02:25:47.743Z,12.89
2018-09-23T02:25:48.344Z,13.03
2018-09-23T02:25:48.941Z,12.93
2018-09-23T02:25:49.544Z,12.89
2018-09-23T02:26:44.048Z,13.06
2018-09-23T02:26:44.617Z,13.03
2018-09-23T02:26:45.217Z,13.02
2018-09-23T02:26:45.817Z,13.03
2018-09-23T02:26:46.415Z,13.06
2018-09-23T02:26:47.018Z,13.02
2018-09-23T02:26:47.614Z,13.00
2018-09-23T02:26:48.217Z,13.02
2018-09-23T02:27:41.677Z,12.99
2018-09-23T02:27:42.271Z,13.00
2018-09-23T02:27:42.869Z,13.04
2018-09-23T02:27:43.483Z,13.00
2018-09-23T02:27:44.067Z,13.03
2018-09-23T02:27:44.667Z,13.02
2018-09-23T02:27:45.268Z,12.99
2018-09-23T02:27:45.880Z,13.02
2018-09-23T02:28:40.349Z,13.03
2018-09-23T02:28:40.944Z,13.00
2018-09-23T02:28:41.544Z,12.99
2018-09-23T02:28:42.144Z,13.04
2018-09-23T02:28:42.744Z,12.99
2018-09-23T02:28:43.346Z,13.07
2018-09-23T02:28:43.943Z,13.00
2018-09-23T02:28:44.544Z,12.99
2018-09-23T02:29:39.022Z,13.02
2018-09-23T02:29:39.621Z,13.00
2018-09-23T02:29:40.223Z,12.96
2018-09-23T02:29:40.820Z,13.04
2018-09-23T02:29:41.420Z,13.02
2018-09-23T02:29:42.020Z,13.03
2018-09-23T02:29:42.620Z,12.95
2018-09-23T02:29:43.220Z,13.00
2018-09-23T02:30:37.699Z,13.02
2018-09-23T02:30:38.296Z,13.07
2018-09-23T02:30:38.896Z,13.00
2018-09-23T02:30:39.497Z,12.99
2018-09-23T02:30:40.097Z,13.00
2018-09-23T02:30:40.701Z,13.04
2018-09-23T02:30:41.294Z,13.04
2018-09-23T02:30:41.893Z,13.00
2018-09-23T02:31:36.402Z,12.99
2018-09-23T02:31:36.972Z,13.03
2018-09-23T02:31:37.573Z,12.97
2018-09-23T02:31:38.175Z,13.02
2018-09-23T02:31:38.772Z,13.02
2018-09-23T02:31:39.370Z,13.02
2018-09-23T02:31:39.971Z,12.95
2018-09-23T02:31:40.571Z,12.99
2018-09-23T02:32:35.051Z,13.00
2018-09-23T02:32:35.648Z,13.07
2018-09-23T02:32:36.246Z,12.99
2018-09-23T02:32:36.847Z,12.99
2018-09-23T02:32:37.450Z,12.99
2018-09-23T02:32:38.046Z,13.03
2018-09-23T02:32:38.645Z,13.00
2018-09-23T02:32:39.247Z,13.09
2018-09-23T02:33:32.703Z,13.00
2018-09-23T02:33:33.302Z,13.04
2018-09-23T02:33:33.901Z,13.04
2018-09-23T02:33:34.501Z,13.00
2018-09-23T02:33:35.103Z,13.02
2018-09-23T02:33:35.704Z,13.07
2018-09-23T02:33:36.301Z,13.14
2018-09-23T02:33:36.900Z,13.06
2018-09-23T02:34:31.377Z,13.02
2018-09-23T02:34:31.975Z,12.99
2018-09-23T02:34:32.576Z,13.04
2018-09-23T02:34:33.176Z,13.07
2018-09-23T02:34:33.775Z,13.07
2018-09-23T02:34:34.374Z,13.06
2018-09-23T02:34:34.975Z,13.03
2018-09-23T02:34:35.575Z,13.09
2018-09-23T02:35:29.031Z,13.03
2018-09-23T02:35:29.627Z,13.02
2018-09-23T02:35:30.245Z,13.15
2018-09-23T02:35:30.827Z,13.04
2018-09-23T02:35:31.427Z,13.04
2018-09-23T02:35:32.029Z,13.03
2018-09-23T02:35:32.627Z,13.03
2018-09-23T02:35:33.228Z,13.15
2018-09-23T02:36:27.706Z,13.02
2018-09-23T02:36:28.303Z,13.02
2018-09-23T02:36:28.903Z,13.04
2018-09-23T02:36:29.502Z,12.95
2018-09-23T02:36:30.101Z,13.04
2018-09-23T02:36:30.705Z,13.02
2018-09-23T02:36:31.303Z,13.04
2018-09-23T02:36:31.907Z,13.04
2018-09-23T02:37:26.407Z,13.00
2018-09-23T02:37:26.978Z,13.11
2018-09-23T02:37:27.579Z,13.03
2018-09-23T02:37:28.179Z,13.09
2018-09-23T02:37:28.777Z,13.04
2018-09-23T02:37:29.378Z,13.04
2018-09-23T02:37:29.978Z,13.03
2018-09-23T02:37:30.576Z,13.04
2018-09-23T02:38:24.049Z,13.03
2018-09-23T02:38:24.630Z,13.06
2018-09-23T02:38:25.231Z,13.00
2018-09-23T02:38:25.830Z,13.02
2018-09-23T02:38:26.432Z,13.07
2018-09-23T02:38:27.031Z,13.02
2018-09-23T02:38:27.629Z,13.04
2018-09-23T02:38:28.230Z,13.07
2018-09-23T02:39:21.686Z,13.07
2018-09-23T02:39:22.283Z,13.03
2018-09-23T02:39:22.883Z,13.06
2018-09-23T02:39:23.483Z,13.06
2018-09-23T02:39:24.081Z,13.06
2018-09-23T02:39:24.683Z,13.06
2018-09-23T02:39:25.282Z,13.03
2018-09-23T02:39:25.881Z,13.02
2018-09-23T02:40:20.360Z,13.04
2018-09-23T02:40:20.959Z,13.03
2018-09-23T02:40:21.556Z,13.03
2018-09-23T02:40:22.157Z,13.02
2018-09-23T02:40:22.757Z,12.99
2018-09-23T02:40:23.370Z,13.00
2018-09-23T02:40:23.954Z,13.00
2018-09-23T02:40:24.556Z,12.97
2018-09-23T02:41:19.038Z,12.99
2018-09-23T02:41:19.638Z,13.07
2018-09-23T02:41:20.232Z,13.03
2018-09-23T02:41:20.836Z,13.00
2018-09-23T02:41:21.433Z,13.04
2018-09-23T02:41:22.032Z,13.02
2018-09-23T02:41:22.633Z,13.03
2018-09-23T02:41:23.231Z,13.02
2018-09-23T02:42:16.713Z,13.06
2018-09-23T02:42:17.285Z,13.00
2018-09-23T02:42:17.885Z,12.99
2018-09-23T02:42:18.486Z,13.02
2018-09-23T02:42:19.086Z,13.07
2018-09-23T02:42:19.686Z,13.07
2018-09-23T02:42:20.284Z,12.95
2018-09-23T02:42:20.884Z,13.02
2018-09-23T02:43:14.342Z,12.93
2018-09-23T02:43:14.941Z,12.99
2018-09-23T02:43:15.539Z,12.97
2018-09-23T02:43:16.137Z,13.06
2018-09-23T02:43:16.736Z,12.96
2018-09-23T02:43:17.338Z,12.95
2018-09-23T02:43:17.940Z,13.02
2018-09-23T02:43:18.539Z,13.04
2018-09-23T02:44:13.020Z,13.00
2018-09-23T02:44:13.612Z,12.95
2018-09-23T02:44:14.211Z,13.06
2018-09-23T02:44:14.812Z,13.07
2018-09-23T02:44:15.412Z,13.00
2018-09-23T02:44:16.012Z,12.97
2018-09-23T02:44:16.611Z,12.96
2018-09-23T02:44:17.211Z,13.07
2018-09-23T02:45:10.671Z,12.97
2018-09-23T02:45:11.265Z,12.97
2018-09-23T02:45:11.863Z,12.92
2018-09-23T02:45:12.466Z,13.04
2018-09-23T02:45:13.066Z,12.99
2018-09-23T02:45:13.668Z,13.00
2018-09-23T02:45:14.263Z,13.03
2018-09-23T02:45:14.862Z,13.03
2018-09-23T02:46:08.320Z,13.02
2018-09-23T02:46:08.916Z,13.00
2018-09-23T02:46:09.517Z,13.03
2018-09-23T02:46:10.116Z,12.99
2018-09-23T02:46:10.716Z,13.03
2018-09-23T02:46:11.317Z,12.99
2018-09-23T02:46:11.914Z,13.02
2018-09-23T02:46:12.515Z,13.02
2018-09-23T02:47:07.020Z,12.99
2018-09-23T02:47:07.591Z,12.97
2018-09-23T02:47:08.191Z,13.02
2018-09-23T02:47:08.792Z,12.97
2018-09-23T02:47:09.390Z,13.02
2018-09-23T02:47:09.991Z,13.00
2018-09-23T02:47:10.590Z,12.96
2018-09-23T02:47:11.190Z,13.00
2018-09-23T02:48:05.679Z,13.03
2018-09-23T02:48:06.267Z,13.02
2018-09-23T02:48:06.870Z,13.06
2018-09-23T02:48:07.471Z,12.99
2018-09-23T02:48:08.067Z,13.02
2018-09-23T02:48:08.666Z,12.96
2018-09-23T02:48:09.266Z,13.06
2018-09-23T02:48:09.869Z,13.04
2018-09-23T02:49:03.323Z,13.04
2018-09-23T02:49:03.920Z,13.03
2018-09-23T02:49:04.519Z,12.96
2018-09-23T02:49:05.119Z,13.02
2018-09-23T02:49:05.720Z,13.00
2018-09-23T02:49:06.318Z,13.02
2018-09-23T02:49:06.918Z,13.06
2018-09-23T02:49:07.518Z,13.02
2018-09-23T02:50:02.002Z,13.04
2018-09-23T02:50:02.594Z,13.09
2018-09-23T02:50:03.193Z,13.04
2018-09-23T02:50:03.792Z,13.04
2018-09-23T02:50:04.392Z,12.97
2018-09-23T02:50:04.998Z,13.02
2018-09-23T02:50:05.593Z,13.02
2018-09-23T02:50:06.192Z,13.00
2018-09-23T02:51:00.672Z,13.03
2018-09-23T02:51:01.270Z,13.00
2018-09-23T02:51:01.870Z,13.04
2018-09-23T02:51:02.474Z,13.07
2018-09-23T02:51:03.069Z,13.03
2018-09-23T02:51:03.668Z,13.03
2018-09-23T02:51:04.268Z,13.03
2018-09-23T02:51:04.868Z,13.03
2018-09-23T02:51:59.374Z,12.99
2018-09-23T02:51:59.945Z,13.07
2018-09-23T02:52:00.546Z,13.02
2018-09-23T02:52:01.147Z,13.03
2018-09-23T02:52:01.745Z,13.06
2018-09-23T02:52:02.348Z,13.09
2018-09-23T02:52:02.944Z,13.06
2018-09-23T02:52:03.545Z,12.99
2018-09-23T02:53:09.697Z,12.99
2018-09-23T02:53:10.295Z,12.99
2018-09-23T02:53:10.894Z,13.06
2018-09-23T02:53:11.493Z,12.97
2018-09-23T02:53:12.095Z,13.00
2018-09-23T02:53:12.693Z,13.02
2018-09-23T02:53:13.294Z,13.06
2018-09-23T02:53:13.893Z,13.06
2018-09-23T02:54:07.352Z,13.02
2018-09-23T02:54:07.948Z,13.04
2018-09-23T02:54:08.546Z,13.04
2018-09-23T02:54:09.147Z,13.09
2018-09-23T02:54:09.748Z,13.07
2018-09-23T02:54:10.349Z,13.04
2018-09-23T02:54:10.946Z,13.07
2018-09-23T02:54:11.547Z,13.06
2018-09-23T02:55:06.025Z,13.04
2018-09-23T02:55:06.624Z,13.02
2018-09-23T02:55:07.226Z,13.03
2018-09-23T02:55:07.822Z,13.02
2018-09-23T02:55:08.456Z,13.03
2018-09-23T02:55:09.021Z,13.04
2018-09-23T02:55:09.622Z,12.96
2018-09-23T02:55:10.223Z,12.99
2018-09-23T02:56:04.711Z,12.95
2018-09-23T02:56:05.297Z,12.99
2018-09-23T02:56:05.897Z,12.96
2018-09-23T02:56:06.496Z,12.96
2018-09-23T02:56:07.097Z,13.06
2018-09-23T02:56:07.699Z,13.07
2018-09-23T02:56:08.296Z,12.92
2018-09-23T02:56:08.895Z,12.97
2018-09-23T02:57:02.385Z,12.99
2018-09-23T02:57:02.950Z,13.06
2018-09-23T02:57:03.551Z,12.99
2018-09-23T02:57:04.149Z,13.12
2018-09-23T02:57:04.750Z,12.93
2018-09-23T02:57:05.348Z,13.06
2018-09-23T02:57:05.948Z,13.00
2018-09-23T02:57:06.552Z,13.07
2018-09-23T02:58:00.006Z,13.00
2018-09-23T02:58:00.603Z,13.03
2018-09-23T02:58:01.202Z,12.99
2018-09-23T02:58:01.803Z,12.99
2018-09-23T02:58:02.405Z,13.02
2018-09-23T02:58:03.000Z,12.96
2018-09-23T02:58:03.601Z,13.00
2018-09-23T02:58:04.200Z,12.97
2018-09-23T02:58:58.682Z,13.04
2018-09-23T02:58:59.277Z,13.04
2018-09-23T02:58:59.877Z,12.99
2018-09-23T02:59:00.477Z,12.99
2018-09-23T02:59:01.080Z,12.95
2018-09-23T02:59:01.675Z,12.95
2018-09-23T02:59:02.274Z,13.02
2018-09-23T02:59:02.884Z,12.99
2018-09-23T02:59:57.355Z,12.96
2018-09-23T02:59:57.953Z,13.03
2018-09-23T02:59:58.553Z,13.07
2018-09-23T02:59:59.152Z,12.96
2018-09-23T02:59:59.752Z,13.02
2018-09-23T03:00:00.352Z,13.02
2018-09-23T03:00:00.954Z,12.97
2018-09-23T03:00:01.553Z,13.00
2018-09-23T03:00:55.008Z,13.00
2018-09-23T03:00:55.604Z,12.99
2018-09-23T03:00:56.204Z,13.03
2018-09-23T03:00:56.804Z,13.00
2018-09-23T03:00:57.405Z,12.99
2018-09-23T03:00:58.003Z,12.99
2018-09-23T03:00:58.604Z,13.03
2018-09-23T03:00:59.203Z,13.04
2018-09-23T03:01:53.709Z,12.95
2018-09-23T03:01:54.280Z,13.07
2018-09-23T03:01:54.885Z,13.00
2018-09-23T03:01:55.480Z,12.96
2018-09-23T03:01:56.081Z,12.97
2018-09-23T03:01:56.680Z,13.00
2018-09-23T03:01:57.281Z,13.00
2018-09-23T03:01:57.881Z,13.02
2018-09-23T03:02:51.336Z,13.02
2018-09-23T03:02:51.935Z,13.02
2018-09-23T03:02:52.532Z,12.99
2018-09-23T03:02:53.133Z,12.99
2018-09-23T03:02:53.732Z,13.06
2018-09-23T03:02:54.333Z,13.02
2018-09-23T03:02:54.932Z,13.03
2018-09-23T03:02:55.535Z,13.07
2018-09-23T03:03:48.986Z,12.99
2018-09-23T03:03:49.586Z,13.00
2018-09-23T03:03:50.184Z,13.02
2018-09-23T03:03:50.785Z,12.93
2018-09-23T03:03:51.384Z,12.96
2018-09-23T03:03:51.985Z,13.07
2018-09-23T03:03:52.585Z,12.97
2018-09-23T03:03:53.184Z,13.02
2018-09-23T03:04:47.663Z,13.00
2018-09-23T03:04:48.259Z,13.03
2018-09-23T03:04:48.859Z,13.02
2018-09-23T03:04:49.460Z,13.04
2018-09-23T03:04:50.063Z,13.03
2018-09-23T03:04:50.664Z,13.03